createdAt,value
2024-01-18T00:01:54.227Z,2.38
2024-01-18T00:04:42.911Z,2.87
2024-01-18T00:07:31.222Z,1.94
2024-01-18T00:10:19.330Z,1.05
2024-01-18T00:13:07.259Z,0.46
2024-01-18T00:15:54.883Z,0.01
2024-01-18T00:18:42.653Z,-0.35
2024-01-18T00:21:30.729Z,-0.56
2024-01-18T00:24:18.871Z,0.38
2024-01-18T00:27:08.057Z,1.80
2024-01-18T00:29:56.169Z,2.88
2024-01-18T00:32:43.908Z,3.79
2024-01-18T00:35:32.799Z,3.53
2024-01-18T00:38:22.870Z,2.35
2024-01-18T00:41:10.660Z,1.45
2024-01-18T00:43:58.433Z,0.83
2024-01-18T00:46:46.200Z,0.34
2024-01-18T00:49:34.867Z,-0.06
2024-01-18T00:52:23.064Z,-0.37
2024-01-18T00:55:11.627Z,-0.36
2024-01-18T00:58:02.232Z,0.90
2024-01-18T01:00:50.148Z,2.04
2024-01-18T01:03:39.072Z,2.90
2024-01-18T01:06:27.074Z,3.50
2024-01-18T01:09:16.112Z,3.24
2024-01-18T01:12:03.901Z,2.12
2024-01-18T01:14:51.784Z,1.30
2024-01-18T01:17:39.950Z,0.70
2024-01-18T01:20:27.960Z,0.24
2024-01-18T01:23:15.762Z,-0.06
2024-01-18T01:26:03.573Z,0.88
2024-01-18T01:28:51.444Z,2.03
2024-01-18T01:31:39.380Z,2.94
2024-01-18T01:34:27.085Z,3.61
2024-01-18T01:37:15.252Z,3.61
2024-01-18T01:40:03.011Z,2.55
2024-01-18T01:42:50.922Z,1.65
2024-01-18T01:45:39.149Z,1.05
2024-01-18T01:48:27.259Z,0.58
2024-01-18T01:51:15.616Z,0.21
2024-01-18T01:54:07.335Z,-0.11
2024-01-18T01:56:55.849Z,-0.38
2024-01-18T01:59:44.213Z,0.00
2024-01-18T02:02:33.988Z,1.33
2024-01-18T02:05:24.524Z,2.45
2024-01-18T02:08:14.063Z,3.26
2024-01-18T02:11:02.206Z,3.50
2024-01-18T02:13:50.180Z,2.53
2024-01-18T02:16:37.864Z,1.59
2024-01-18T02:19:25.772Z,0.95
2024-01-18T02:22:17.215Z,0.48
2024-01-18T02:25:29.337Z,0.11
2024-01-18T02:28:17.637Z,-0.24
2024-01-18T02:31:05.701Z,-0.52
2024-01-18T02:33:53.808Z,-0.63
2024-01-18T02:36:41.960Z,0.73
2024-01-18T02:39:29.879Z,2.08
2024-01-18T02:42:18.096Z,3.01
2024-01-18T02:45:08.146Z,3.34
2024-01-18T02:47:57.124Z,2.33
2024-01-18T02:50:44.984Z,1.40
2024-01-18T02:53:32.902Z,0.74
2024-01-18T02:56:22.557Z,0.27
2024-01-18T02:59:10.703Z,-0.11
2024-01-18T03:01:58.424Z,-0.41
2024-01-18T03:04:46.779Z,-0.26
2024-01-18T03:07:35.205Z,1.05
2024-01-18T03:10:23.544Z,2.17
2024-01-18T03:13:11.406Z,2.83
2024-01-18T03:15:59.249Z,2.91
2024-01-18T03:18:48.003Z,1.94
2024-01-18T03:21:36.106Z,1.05
2024-01-18T03:24:24.152Z,0.45
2024-01-18T03:27:12.058Z,-0.03
2024-01-18T03:30:00.021Z,-0.42
2024-01-18T03:32:48.526Z,-0.72
2024-01-18T03:35:36.340Z,-0.97
2024-01-18T03:38:24.210Z,-1.16
2024-01-18T03:41:12.310Z,-0.21
2024-01-18T03:43:59.885Z,1.16
2024-01-18T03:46:47.685Z,2.19
2024-01-18T03:49:35.648Z,2.85
2024-01-18T03:52:24.418Z,2.95
2024-01-18T03:55:12.752Z,1.80
2024-01-18T03:58:01.168Z,0.79
2024-01-18T04:00:49.460Z,0.08
2024-01-18T04:03:37.687Z,-0.47
2024-01-18T04:06:25.666Z,-0.91
2024-01-18T04:09:13.578Z,-1.29
2024-01-18T04:12:01.633Z,-1.61
2024-01-18T04:14:49.238Z,-1.61
2024-01-18T04:17:37.173Z,-0.38
2024-01-18T04:20:28.858Z,0.92
2024-01-18T04:23:16.759Z,1.81
2024-01-18T04:26:04.945Z,2.43
2024-01-18T04:28:53.074Z,2.78
2024-01-18T04:31:40.971Z,2.83
2024-01-18T04:34:28.995Z,1.78
2024-01-18T04:37:16.830Z,0.78
2024-01-18T04:40:05.089Z,0.05
2024-01-18T04:42:54.169Z,-0.51
2024-01-18T04:45:41.953Z,-0.90
2024-01-18T04:48:30.171Z,-0.85
2024-01-18T04:51:18.501Z,0.44
2024-01-18T04:54:06.703Z,1.64
2024-01-18T04:56:55.292Z,2.44
2024-01-18T04:59:43.107Z,3.01
2024-01-18T05:02:31.092Z,3.44
2024-01-18T05:05:21.139Z,3.41
2024-01-18T05:08:09.733Z,2.25
2024-01-18T05:10:57.967Z,1.28
2024-01-18T05:13:46.115Z,0.63
2024-01-18T05:16:34.649Z,0.13
2024-01-18T05:19:22.861Z,-0.27
2024-01-18T05:22:11.282Z,-0.59
2024-01-18T05:25:00.672Z,-0.56
2024-01-18T05:27:48.543Z,0.68
2024-01-18T05:30:36.305Z,1.89
2024-01-18T05:33:24.366Z,2.79
2024-01-18T05:36:13.421Z,3.37
2024-01-18T05:39:01.271Z,3.50
2024-01-18T05:41:49.321Z,2.42
2024-01-18T05:44:37.578Z,1.45
2024-01-18T05:47:25.877Z,0.76
2024-01-18T05:50:14.132Z,0.24
2024-01-18T05:53:02.023Z,-0.01
2024-01-18T05:55:49.920Z,1.04
2024-01-18T05:58:39.615Z,2.22
2024-01-18T06:01:27.996Z,3.05
2024-01-18T06:04:15.474Z,3.50
2024-01-18T06:07:03.434Z,3.47
2024-01-18T06:09:51.957Z,2.25
2024-01-18T06:12:39.881Z,1.16
2024-01-18T06:15:28.671Z,0.36
2024-01-18T06:18:17.019Z,-0.25
2024-01-18T06:21:08.174Z,-0.73
2024-01-18T06:23:56.951Z,-0.19
2024-01-18T06:26:44.806Z,0.97
2024-01-18T06:29:32.568Z,1.78
2024-01-18T06:32:20.273Z,2.46
2024-01-18T06:35:08.506Z,2.85
2024-01-18T06:37:56.500Z,3.11
2024-01-18T06:40:44.624Z,3.40
2024-01-18T06:43:32.588Z,3.31
2024-01-18T06:46:22.132Z,2.11
2024-01-18T06:49:10.264Z,1.00
2024-01-18T06:51:59.199Z,0.19
2024-01-18T06:54:47.241Z,-0.43
2024-01-18T06:57:35.458Z,-0.60
2024-01-18T07:00:26.283Z,0.52
2024-01-18T07:03:14.615Z,1.69
2024-01-18T07:06:04.429Z,2.48
2024-01-18T07:08:52.536Z,3.05
2024-01-18T07:11:40.646Z,3.49
2024-01-18T07:14:31.820Z,3.97
2024-01-18T07:17:21.864Z,4.00
2024-01-18T07:20:09.961Z,2.63
2024-01-18T07:22:57.473Z,1.47
2024-01-18T07:25:45.320Z,0.63
2024-01-18T07:28:33.423Z,0.04
2024-01-18T07:31:21.660Z,-0.11
2024-01-18T07:34:09.944Z,1.11
2024-01-18T07:36:58.878Z,2.29
2024-01-18T07:39:47.173Z,2.92
2024-01-18T07:42:37.413Z,3.40
2024-01-18T07:45:26.454Z,3.72
2024-01-18T07:48:14.727Z,3.60
2024-01-18T07:51:02.783Z,2.42
2024-01-18T07:53:50.357Z,1.40
2024-01-18T07:56:38.246Z,0.69
2024-01-18T07:59:26.128Z,0.16
2024-01-18T08:02:14.365Z,0.03
2024-01-18T08:05:02.849Z,1.14
2024-01-18T08:07:50.942Z,2.25
2024-01-18T08:10:38.806Z,3.03
2024-01-18T08:13:26.548Z,3.51
2024-01-18T08:16:14.312Z,4.04
2024-01-18T08:19:02.392Z,4.15
2024-01-18T08:21:51.218Z,3.16
2024-01-18T08:24:40.337Z,2.33
2024-01-18T08:27:28.467Z,1.84
2024-01-18T08:30:16.275Z,1.58
2024-01-18T08:33:04.601Z,1.61
2024-01-18T08:35:52.669Z,3.07
2024-01-18T08:38:40.704Z,5.51
2024-01-18T08:41:28.204Z,8.06
2024-01-18T08:44:15.688Z,9.99
2024-01-18T08:47:04.077Z,10.04
2024-01-18T08:49:52.258Z,9.83
2024-01-18T08:52:40.362Z,9.14
2024-01-18T08:55:29.049Z,8.29
2024-01-18T08:58:17.747Z,7.91
2024-01-18T09:01:06.810Z,7.88
2024-01-18T09:03:54.693Z,7.67
2024-01-18T09:06:43.063Z,7.79
2024-01-18T09:09:31.134Z,7.46
2024-01-18T09:12:19.262Z,6.88
2024-01-18T09:15:07.807Z,6.24
2024-01-18T09:17:56.026Z,5.69
2024-01-18T09:20:46.477Z,5.23
2024-01-18T09:23:33.980Z,4.75
2024-01-18T09:26:22.153Z,4.32
2024-01-18T09:29:10.032Z,3.97
2024-01-18T09:31:58.508Z,3.64
2024-01-18T09:34:46.351Z,3.59
2024-01-18T09:37:34.239Z,4.68
2024-01-18T09:40:23.845Z,5.91
2024-01-18T09:43:12.340Z,6.46
2024-01-18T09:46:00.685Z,5.80
2024-01-18T09:48:48.603Z,5.28
2024-01-18T09:51:36.541Z,4.88
2024-01-18T09:54:26.716Z,4.59
2024-01-18T09:57:24.194Z,4.41
2024-01-18T10:00:16.864Z,4.58
2024-01-18T10:03:05.962Z,4.73
2024-01-18T10:05:53.791Z,4.92
2024-01-18T10:08:41.907Z,5.36
2024-01-18T10:11:29.654Z,6.77
2024-01-18T10:14:17.568Z,9.55
2024-01-18T10:17:05.948Z,10.34
2024-01-18T10:19:57.438Z,10.71
2024-01-18T10:22:46.873Z,11.32
2024-01-18T10:25:34.991Z,11.20
2024-01-18T10:28:24.681Z,10.66
2024-01-18T10:31:12.550Z,9.92
2024-01-18T10:34:00.383Z,9.28
2024-01-18T10:36:48.007Z,10.19
2024-01-18T10:39:43.452Z,12.17
2024-01-18T10:42:31.410Z,13.98
2024-01-18T10:45:19.480Z,15.31
2024-01-18T10:48:08.040Z,16.49
2024-01-18T10:50:57.121Z,17.42
2024-01-18T10:53:47.924Z,18.22
2024-01-18T10:56:36.297Z,18.66
2024-01-18T10:59:25.894Z,18.40
2024-01-18T11:02:15.194Z,18.41
2024-01-18T11:05:03.707Z,18.68
2024-01-18T11:07:52.606Z,19.41
2024-01-18T11:10:44.297Z,19.98
2024-01-18T11:13:32.335Z,20.45
2024-01-18T11:16:20.402Z,20.80
2024-01-18T11:19:08.259Z,20.89
2024-01-18T11:21:56.372Z,21.04
2024-01-18T11:24:46.493Z,20.94
2024-01-18T11:27:40.016Z,21.01
2024-01-18T11:30:37.025Z,21.18
2024-01-18T11:33:26.296Z,21.23
2024-01-18T11:36:15.390Z,21.46
2024-01-18T11:39:04.381Z,21.59
2024-01-18T11:41:52.836Z,21.51
2024-01-18T11:45:19.420Z,20.79
2024-01-18T11:48:07.856Z,20.29
2024-01-18T11:50:56.904Z,20.24
2024-01-18T11:53:45.320Z,20.08
2024-01-18T11:56:40.181Z,19.75
2024-01-18T11:59:32.047Z,19.35
2024-01-18T12:02:21.567Z,18.82
2024-01-18T12:05:10.141Z,18.10
2024-01-18T12:07:58.649Z,17.74
2024-01-18T12:10:47.917Z,17.55
2024-01-18T12:13:37.118Z,17.32
2024-01-18T12:16:25.319Z,17.01
2024-01-18T12:19:13.398Z,16.83
2024-01-18T12:22:14.139Z,16.57
2024-01-18T12:25:04.672Z,16.26
2024-01-18T12:27:54.681Z,16.02
2024-01-18T12:30:44.620Z,15.73
2024-01-18T12:33:36.486Z,15.32
2024-01-18T12:36:24.233Z,14.83
2024-01-18T12:39:12.778Z,14.21
2024-01-18T12:42:00.868Z,13.75
2024-01-18T12:44:55.901Z,13.24
2024-01-18T12:47:43.891Z,12.73
2024-01-18T12:50:32.144Z,12.41
2024-01-18T12:53:20.494Z,12.05
2024-01-18T12:56:12.958Z,11.51
2024-01-18T12:59:01.049Z,10.41
2024-01-18T13:01:52.151Z,9.35
2024-01-18T13:04:40.505Z,8.26
2024-01-18T13:07:28.730Z,7.30
2024-01-18T13:10:16.829Z,6.46
2024-01-18T13:13:08.348Z,5.77
2024-01-18T13:15:59.658Z,5.20
2024-01-18T13:18:47.556Z,4.63
2024-01-18T13:21:35.762Z,4.21
2024-01-18T13:24:23.770Z,3.86
2024-01-18T13:27:12.554Z,3.55
2024-01-18T13:30:01.228Z,3.32
2024-01-18T13:32:51.235Z,3.11
2024-01-18T13:35:39.246Z,2.90
2024-01-18T13:38:27.121Z,2.71
2024-01-18T13:41:14.756Z,2.55
2024-01-18T13:44:04.946Z,2.42
2024-01-18T13:46:54.000Z,2.26
2024-01-18T13:49:42.037Z,2.11
2024-01-18T13:52:30.384Z,2.00
2024-01-18T13:55:18.912Z,1.91
2024-01-18T13:58:09.236Z,1.82
2024-01-18T14:00:57.280Z,1.74
2024-01-18T14:03:49.066Z,1.65
2024-01-18T14:06:37.551Z,1.55
2024-01-18T14:09:25.716Z,1.46
2024-01-18T14:12:13.793Z,1.38
2024-01-18T14:15:03.046Z,1.27
2024-01-18T14:17:52.421Z,1.14
2024-01-18T14:20:40.253Z,1.02
2024-01-18T14:23:29.691Z,0.92
2024-01-18T14:26:18.318Z,0.82
2024-01-18T14:29:11.950Z,0.71
2024-01-18T14:32:00.272Z,0.60
2024-01-18T14:34:48.367Z,0.48
2024-01-18T14:37:40.242Z,0.35
2024-01-18T14:40:28.163Z,0.25
2024-01-18T14:43:16.030Z,0.14
2024-01-18T14:46:04.292Z,0.03
2024-01-18T14:48:52.606Z,-0.07
2024-01-18T14:51:40.668Z,-0.18
2024-01-18T14:54:30.678Z,-0.27
2024-01-18T14:57:24.202Z,-0.37
2024-01-18T15:00:14.700Z,-0.44
2024-01-18T15:03:03.607Z,-0.53
2024-01-18T15:05:51.344Z,-0.61
2024-01-18T15:08:39.211Z,-0.67
2024-01-18T15:11:27.219Z,-0.74
2024-01-18T15:14:15.509Z,-0.80
2024-01-18T15:17:03.676Z,-0.86
2024-01-18T15:19:51.383Z,-0.92
2024-01-18T15:22:39.741Z,-0.69
2024-01-18T15:25:27.708Z,0.72
2024-01-18T15:28:15.805Z,1.47
2024-01-18T15:31:03.893Z,0.86
2024-01-18T15:33:52.002Z,0.30
2024-01-18T15:36:41.282Z,-0.11
2024-01-18T15:39:29.262Z,-0.41
2024-01-18T15:42:17.139Z,-0.65
2024-01-18T15:45:05.609Z,-0.85
2024-01-18T15:47:55.705Z,-1.00
2024-01-18T15:50:43.394Z,-1.14
2024-01-18T15:53:31.415Z,-1.25
2024-01-18T15:56:20.901Z,-0.96
2024-01-18T15:59:08.926Z,0.40
2024-01-18T16:01:56.820Z,1.68
2024-01-18T16:04:44.805Z,2.53
2024-01-18T16:07:32.461Z,2.18
2024-01-18T16:10:20.257Z,1.30
2024-01-18T16:13:08.320Z,0.70
2024-01-18T16:15:57.936Z,0.32
2024-01-18T16:18:45.918Z,-0.01
2024-01-18T16:21:33.639Z,0.07
2024-01-18T16:24:21.475Z,1.30
2024-01-18T16:27:09.305Z,1.97
2024-01-18T16:30:03.129Z,1.30
2024-01-18T16:32:55.031Z,0.60
2024-01-18T16:35:43.834Z,0.14
2024-01-18T16:38:31.553Z,-0.22
2024-01-18T16:41:19.490Z,0.25
2024-01-18T16:44:07.488Z,1.48
2024-01-18T16:46:55.356Z,2.27
2024-01-18T16:49:43.634Z,1.93
2024-01-18T16:52:31.588Z,1.03
2024-01-18T16:55:19.489Z,0.38
2024-01-18T16:58:07.995Z,0.22
2024-01-18T17:00:55.936Z,1.34
2024-01-18T17:03:43.638Z,2.35
2024-01-18T17:06:32.830Z,3.12
2024-01-18T17:09:20.545Z,4.69
2024-01-18T17:12:08.978Z,5.61
2024-01-18T17:14:57.895Z,4.35
2024-01-18T17:17:46.472Z,2.88
2024-01-18T17:20:34.911Z,1.78
2024-01-18T17:23:23.410Z,1.00
2024-01-18T17:26:11.711Z,0.41
2024-01-18T17:28:59.940Z,-0.07
2024-01-18T17:31:48.712Z,-0.06
2024-01-18T17:34:37.233Z,1.16
2024-01-18T17:37:24.762Z,2.31
2024-01-18T17:40:13.331Z,3.34
2024-01-18T17:43:01.509Z,3.58
2024-01-18T17:45:49.505Z,2.45
2024-01-18T17:48:38.060Z,1.34
2024-01-18T17:51:26.373Z,0.57
2024-01-18T17:54:14.138Z,0.03
2024-01-18T17:57:01.980Z,0.33
2024-01-18T17:59:51.272Z,1.76
2024-01-18T18:02:39.775Z,2.90
2024-01-18T18:05:28.430Z,2.29
2024-01-18T18:08:16.555Z,1.23
2024-01-18T18:11:05.849Z,0.47
2024-01-18T18:13:53.929Z,0.70
2024-01-18T18:16:41.893Z,1.81
2024-01-18T18:19:29.752Z,3.03
2024-01-18T18:22:18.863Z,2.96
2024-01-18T18:25:07.240Z,1.81
2024-01-18T18:27:55.268Z,0.94
2024-01-18T18:30:52.621Z,0.70
2024-01-18T18:33:46.017Z,1.97
2024-01-18T18:36:33.593Z,3.81
2024-01-18T18:39:21.897Z,3.73
2024-01-18T18:42:09.574Z,2.35
2024-01-18T18:44:58.305Z,1.29
2024-01-18T18:47:46.463Z,0.53
2024-01-18T18:50:34.442Z,0.28
2024-01-18T18:53:22.224Z,2.04
2024-01-18T18:56:10.620Z,3.82
2024-01-18T18:58:58.313Z,5.13
2024-01-18T19:01:46.380Z,5.65
2024-01-18T19:04:34.374Z,3.94
2024-01-18T19:07:22.714Z,2.41
2024-01-18T19:10:11.379Z,1.34
2024-01-18T19:12:59.982Z,0.56
2024-01-18T19:15:47.684Z,-0.06
2024-01-18T19:18:35.702Z,-0.39
2024-01-18T19:21:23.985Z,0.71
2024-01-18T19:24:11.787Z,3.17
2024-01-18T19:26:59.688Z,5.08
2024-01-18T19:29:48.734Z,5.50
2024-01-18T19:32:38.589Z,3.71
2024-01-18T19:35:26.617Z,2.25
2024-01-18T19:38:15.709Z,1.22
2024-01-18T19:41:05.273Z,0.50
2024-01-18T19:43:52.930Z,0.09
2024-01-18T19:46:41.018Z,1.65
2024-01-18T19:49:29.898Z,4.13
2024-01-18T19:52:17.697Z,5.66
2024-01-18T19:55:08.791Z,4.89
2024-01-18T19:57:58.107Z,3.17
2024-01-18T20:00:46.168Z,1.97
2024-01-18T20:03:34.116Z,1.12
2024-01-18T20:06:23.246Z,1.20
2024-01-18T20:09:13.597Z,3.81
2024-01-18T20:12:02.062Z,5.55
2024-01-18T20:14:50.173Z,5.86
2024-01-18T20:17:38.335Z,4.09
2024-01-18T20:20:26.328Z,2.57
2024-01-18T20:23:14.545Z,1.50
2024-01-18T20:26:04.802Z,1.22
2024-01-18T20:28:53.569Z,3.34
2024-01-18T20:31:43.811Z,4.33
2024-01-18T20:34:32.560Z,3.04
2024-01-18T20:37:20.356Z,1.70
2024-01-18T20:40:09.363Z,0.79
2024-01-18T20:42:57.535Z,1.06
2024-01-18T20:45:46.041Z,3.51
2024-01-18T20:48:34.337Z,4.43
2024-01-18T20:51:22.353Z,2.89
2024-01-18T20:54:10.328Z,1.52
2024-01-18T20:56:58.468Z,0.59
2024-01-18T20:59:46.379Z,0.78
2024-01-18T21:02:34.867Z,3.16
2024-01-18T21:05:22.892Z,4.85
2024-01-18T21:08:11.870Z,5.33
2024-01-18T21:10:59.599Z,3.65
2024-01-18T21:13:47.451Z,2.02
2024-01-18T21:16:36.105Z,0.96
2024-01-18T21:19:24.002Z,0.37
2024-01-18T21:22:12.126Z,2.21
2024-01-18T21:25:00.551Z,3.99
2024-01-18T21:27:48.290Z,3.27
2024-01-18T21:30:36.095Z,1.80
2024-01-18T21:33:24.100Z,0.71
2024-01-18T21:36:14.484Z,1.38
2024-01-18T21:39:02.414Z,3.74
2024-01-18T21:41:50.303Z,5.17
2024-01-18T21:44:39.351Z,4.45
2024-01-18T21:47:27.377Z,2.39
2024-01-18T21:50:15.533Z,1.11
2024-01-18T21:53:04.978Z,0.26
2024-01-18T21:55:54.393Z,0.79
2024-01-18T21:58:42.826Z,3.25
2024-01-18T22:01:30.600Z,3.61
2024-01-18T22:04:19.245Z,2.07
2024-01-18T22:07:10.555Z,0.77
2024-01-18T22:09:58.503Z,-0.07
2024-01-18T22:12:46.092Z,0.04
2024-01-18T22:15:33.640Z,2.39
2024-01-18T22:18:21.384Z,3.87
2024-01-18T22:21:09.105Z,2.90
2024-01-18T22:23:58.326Z,1.38
2024-01-18T22:26:46.199Z,0.30
2024-01-18T22:29:33.722Z,1.10
2024-01-18T22:32:22.126Z,3.40
2024-01-18T22:35:10.489Z,4.13
2024-01-18T22:37:57.944Z,2.63
2024-01-18T22:40:45.981Z,1.09
2024-01-18T22:43:33.934Z,0.08
2024-01-18T22:46:21.718Z,0.37
2024-01-18T22:49:10.086Z,2.63
2024-01-18T22:51:58.746Z,3.77
2024-01-18T22:54:46.702Z,2.31
2024-01-18T22:57:34.795Z,0.96
2024-01-18T23:00:22.795Z,-0.01
2024-01-18T23:03:10.515Z,0.53
2024-01-18T23:05:58.131Z,2.62
2024-01-18T23:08:46.599Z,2.97
2024-01-18T23:11:34.623Z,1.69
2024-01-18T23:14:22.426Z,0.44
2024-01-18T23:17:10.286Z,1.07
2024-01-18T23:19:58.218Z,3.32
2024-01-18T23:22:46.003Z,3.62
2024-01-18T23:25:33.724Z,2.09
2024-01-18T23:28:21.623Z,0.74
2024-01-18T23:31:09.385Z,0.31
2024-01-18T23:33:57.043Z,2.45
2024-01-18T23:36:44.836Z,3.93
2024-01-18T23:39:34.305Z,2.75
2024-01-18T23:42:21.862Z,1.21
2024-01-18T23:45:10.457Z,0.20
2024-01-18T23:50:45.816Z,3.71
2024-01-18T23:53:33.993Z,3.90
2024-01-18T23:56:21.664Z,2.26
2024-01-18T23:59:09.184Z,0.89
